sensor_id;sensor_type;location;lat;lon;timestamp;P1;durP1;ratioP1;P2;durP2;ratioP2
75851;SDS011;64500;52.632;20.656;2023-04-24T00:01:07;15.50;;;8.90;;
75851;SDS011;64500;52.632;20.656;2023-04-24T00:03:35;18.70;;;8.70;;
75851;SDS011;64500;52.632;20.656;2023-04-24T00:06:03;14.90;;;8.80;;
75851;SDS011;64500;52.632;20.656;2023-04-24T00:08:30;15.20;;;8.90;;
75851;SDS011;64500;52.632;20.656;2023-04-24T00:10:57;17.10;;;8.80;;
75851;SDS011;64500;52.632;20.656;2023-04-24T00:13:24;14.80;;;9.10;;
75851;SDS011;64500;52.632;20.656;2023-04-24T00:15:51;13.90;;;8.60;;
75851;SDS011;64500;52.632;20.656;2023-04-24T00:18:18;15.40;;;8.50;;
75851;SDS011;64500;52.632;20.656;2023-04-24T00:20:45;16.20;;;8.50;;
75851;SDS011;64500;52.632;20.656;2023-04-24T00:23:13;15.10;;;9.00;;
75851;SDS011;64500;52.632;20.656;2023-04-24T00:25:40;14.30;;;8.60;;
75851;SDS011;64500;52.632;20.656;2023-04-24T00:28:07;15.30;;;9.80;;
75851;SDS011;64500;52.632;20.656;2023-04-24T00:30:36;16.20;;;9.30;;
75851;SDS011;64500;52.632;20.656;2023-04-24T00:33:02;17.70;;;9.80;;
75851;SDS011;64500;52.632;20.656;2023-04-24T00:35:30;20.90;;;9.90;;
75851;SDS011;64500;52.632;20.656;2023-04-24T00:37:59;15.40;;;8.90;;
75851;SDS011;64500;52.632;20.656;2023-04-24T00:40:26;17.60;;;9.80;;
75851;SDS011;64500;52.632;20.656;2023-04-24T00:42:54;17.20;;;9.80;;
75851;SDS011;64500;52.632;20.656;2023-04-24T00:45:21;17.50;;;9.60;;
75851;SDS011;64500;52.632;20.656;2023-04-24T00:47:48;17.20;;;9.40;;
75851;SDS011;64500;52.632;20.656;2023-04-24T00:50:15;18.00;;;10.10;;
75851;SDS011;64500;52.632;20.656;2023-04-24T00:52:43;17.30;;;9.50;;
75851;SDS011;64500;52.632;20.656;2023-04-24T00:55:09;15.10;;;8.80;;
75851;SDS011;64500;52.632;20.656;2023-04-24T00:57:37;16.20;;;8.60;;
75851;SDS011;64500;52.632;20.656;2023-04-24T01:00:05;15.50;;;9.00;;
75851;SDS011;64500;52.632;20.656;2023-04-24T01:02:39;17.30;;;9.50;;
75851;SDS011;64500;52.632;20.656;2023-04-24T01:05:12;16.20;;;9.00;;
75851;SDS011;64500;52.632;20.656;2023-04-24T01:07:41;17.90;;;9.80;;
75851;SDS011;64500;52.632;20.656;2023-04-24T01:10:10;16.60;;;10.30;;
75851;SDS011;64500;52.632;20.656;2023-04-24T01:12:39;16.40;;;9.10;;
75851;SDS011;64500;52.632;20.656;2023-04-24T01:15:09;15.80;;;9.10;;
75851;SDS011;64500;52.632;20.656;2023-04-24T01:17:36;15.70;;;9.70;;
75851;SDS011;64500;52.632;20.656;2023-04-24T01:20:03;19.00;;;9.40;;
75851;SDS011;64500;52.632;20.656;2023-04-24T01:22:34;19.30;;;9.40;;
75851;SDS011;64500;52.632;20.656;2023-04-24T01:25:02;17.50;;;10.30;;
75851;SDS011;64500;52.632;20.656;2023-04-24T01:27:29;15.50;;;10.10;;
75851;SDS011;64500;52.632;20.656;2023-04-24T01:29:56;19.30;;;10.10;;
75851;SDS011;64500;52.632;20.656;2023-04-24T01:32:24;16.20;;;9.10;;
75851;SDS011;64500;52.632;20.656;2023-04-24T01:34:52;14.50;;;9.50;;
75851;SDS011;64500;52.632;20.656;2023-04-24T01:37:20;18.90;;;9.80;;
75851;SDS011;64500;52.632;20.656;2023-04-24T01:39:47;17.00;;;10.40;;
75851;SDS011;64500;52.632;20.656;2023-04-24T01:42:14;17.80;;;10.70;;
75851;SDS011;64500;52.632;20.656;2023-04-24T01:44:41;16.80;;;10.00;;
75851;SDS011;64500;52.632;20.656;2023-04-24T01:47:09;16.70;;;9.80;;
75851;SDS011;64500;52.632;20.656;2023-04-24T01:49:38;17.30;;;9.70;;
75851;SDS011;64500;52.632;20.656;2023-04-24T01:52:05;17.40;;;10.20;;
75851;SDS011;64500;52.632;20.656;2023-04-24T01:54:32;18.30;;;10.60;;
75851;SDS011;64500;52.632;20.656;2023-04-24T01:56:59;18.70;;;9.90;;
75851;SDS011;64500;52.632;20.656;2023-04-24T01:59:28;16.90;;;9.50;;
75851;SDS011;64500;52.632;20.656;2023-04-24T02:01:59;17.70;;;10.10;;
75851;SDS011;64500;52.632;20.656;2023-04-24T02:04:26;18.00;;;10.20;;
75851;SDS011;64500;52.632;20.656;2023-04-24T02:06:53;15.40;;;9.90;;
75851;SDS011;64500;52.632;20.656;2023-04-24T02:09:20;16.90;;;10.50;;
75851;SDS011;64500;52.632;20.656;2023-04-24T02:11:47;17.90;;;10.20;;
75851;SDS011;64500;52.632;20.656;2023-04-24T02:14:14;14.10;;;9.20;;
75851;SDS011;64500;52.632;20.656;2023-04-24T02:16:41;17.60;;;9.90;;
75851;SDS011;64500;52.632;20.656;2023-04-24T02:19:08;16.90;;;9.80;;
75851;SDS011;64500;52.632;20.656;2023-04-24T02:21:35;15.70;;;9.90;;
75851;SDS011;64500;52.632;20.656;2023-04-24T02:24:02;18.00;;;10.10;;
75851;SDS011;64500;52.632;20.656;2023-04-24T02:26:29;17.40;;;10.30;;
75851;SDS011;64500;52.632;20.656;2023-04-24T02:28:58;16.70;;;10.80;;
75851;SDS011;64500;52.632;20.656;2023-04-24T02:31:25;19.40;;;11.20;;
75851;SDS011;64500;52.632;20.656;2023-04-24T02:33:52;19.70;;;11.50;;
75851;SDS011;64500;52.632;20.656;2023-04-24T02:36:19;21.80;;;11.60;;
75851;SDS011;64500;52.632;20.656;2023-04-24T02:38:46;18.80;;;10.50;;
75851;SDS011;64500;52.632;20.656;2023-04-24T02:41:13;18.30;;;10.70;;
75851;SDS011;64500;52.632;20.656;2023-04-24T02:43:40;16.70;;;10.20;;
75851;SDS011;64500;52.632;20.656;2023-04-24T02:46:07;19.30;;;11.60;;
75851;SDS011;64500;52.632;20.656;2023-04-24T02:48:34;16.60;;;11.20;;
75851;SDS011;64500;52.632;20.656;2023-04-24T02:51:01;22.80;;;11.60;;
75851;SDS011;64500;52.632;20.656;2023-04-24T02:53:28;16.50;;;11.00;;
75851;SDS011;64500;52.632;20.656;2023-04-24T02:55:56;18.30;;;10.50;;
75851;SDS011;64500;52.632;20.656;2023-04-24T02:58:23;16.90;;;10.80;;
75851;SDS011;64500;52.632;20.656;2023-04-24T03:00:54;20.10;;;11.70;;
75851;SDS011;64500;52.632;20.656;2023-04-24T03:03:22;17.30;;;10.90;;
75851;SDS011;64500;52.632;20.656;2023-04-24T03:05:50;15.50;;;10.80;;
75851;SDS011;64500;52.632;20.656;2023-04-24T03:08:17;19.30;;;11.30;;
75851;SDS011;64500;52.632;20.656;2023-04-24T03:10:44;20.30;;;11.50;;
75851;SDS011;64500;52.632;20.656;2023-04-24T03:13:12;21.30;;;12.30;;
75851;SDS011;64500;52.632;20.656;2023-04-24T03:15:39;20.20;;;12.20;;
75851;SDS011;64500;52.632;20.656;2023-04-24T03:18:06;22.20;;;13.80;;
75851;SDS011;64500;52.632;20.656;2023-04-24T03:20:32;21.20;;;13.60;;
75851;SDS011;64500;52.632;20.656;2023-04-24T03:22:59;21.70;;;13.30;;
75851;SDS011;64500;52.632;20.656;2023-04-24T03:25:27;22.10;;;12.70;;
75851;SDS011;64500;52.632;20.656;2023-04-24T03:27:54;21.10;;;12.80;;
75851;SDS011;64500;52.632;20.656;2023-04-24T03:30:21;20.50;;;12.80;;
75851;SDS011;64500;52.632;20.656;2023-04-24T03:32:48;21.90;;;14.20;;
75851;SDS011;64500;52.632;20.656;2023-04-24T03:35:15;24.60;;;15.10;;
75851;SDS011;64500;52.632;20.656;2023-04-24T03:37:42;23.90;;;15.40;;
75851;SDS011;64500;52.632;20.656;2023-04-24T03:40:09;24.60;;;13.80;;
75851;SDS011;64500;52.632;20.656;2023-04-24T03:42:36;18.70;;;12.10;;
75851;SDS011;64500;52.632;20.656;2023-04-24T03:45:03;23.10;;;13.50;;
75851;SDS011;64500;52.632;20.656;2023-04-24T03:47:31;25.90;;;15.90;;
75851;SDS011;64500;52.632;20.656;2023-04-24T03:49:58;23.60;;;15.10;;
75851;SDS011;64500;52.632;20.656;2023-04-24T03:52:25;26.60;;;15.30;;
75851;SDS011;64500;52.632;20.656;2023-04-24T03:54:52;25.30;;;15.30;;
75851;SDS011;64500;52.632;20.656;2023-04-24T03:57:19;25.20;;;14.10;;
75851;SDS011;64500;52.632;20.656;2023-04-24T03:59:46;24.40;;;13.50;;
75851;SDS011;64500;52.632;20.656;2023-04-24T04:02:13;23.10;;;12.90;;
75851;SDS011;64500;52.632;20.656;2023-04-24T04:04:40;20.60;;;13.10;;
75851;SDS011;64500;52.632;20.656;2023-04-24T04:07:06;24.00;;;12.50;;
75851;SDS011;64500;52.632;20.656;2023-04-24T04:09:34;19.70;;;11.80;;
75851;SDS011;64500;52.632;20.656;2023-04-24T04:12:01;21.20;;;11.60;;
75851;SDS011;64500;52.632;20.656;2023-04-24T04:14:28;23.00;;;13.20;;
75851;SDS011;64500;52.632;20.656;2023-04-24T04:16:55;26.00;;;14.40;;
75851;SDS011;64500;52.632;20.656;2023-04-24T04:19:22;20.90;;;12.10;;
75851;SDS011;64500;52.632;20.656;2023-04-24T04:21:49;18.10;;;9.80;;
75851;SDS011;64500;52.632;20.656;2023-04-24T04:24:22;16.90;;;10.00;;
75851;SDS011;64500;52.632;20.656;2023-04-24T04:26:50;16.90;;;10.30;;
75851;SDS011;64500;52.632;20.656;2023-04-24T04:29:18;17.00;;;10.20;;
75851;SDS011;64500;52.632;20.656;2023-04-24T04:31:46;19.40;;;11.90;;
75851;SDS011;64500;52.632;20.656;2023-04-24T04:34:13;23.70;;;13.00;;
75851;SDS011;64500;52.632;20.656;2023-04-24T04:36:40;17.10;;;11.00;;
75851;SDS011;64500;52.632;20.656;2023-04-24T04:39:08;16.90;;;10.90;;
75851;SDS011;64500;52.632;20.656;2023-04-24T04:41:35;17.50;;;9.90;;
75851;SDS011;64500;52.632;20.656;2023-04-24T04:44:01;16.20;;;10.20;;
75851;SDS011;64500;52.632;20.656;2023-04-24T04:46:31;19.60;;;11.50;;
75851;SDS011;64500;52.632;20.656;2023-04-24T04:49:02;19.90;;;9.90;;
75851;SDS011;64500;52.632;20.656;2023-04-24T04:51:30;21.90;;;12.70;;
75851;SDS011;64500;52.632;20.656;2023-04-24T04:53:57;18.30;;;10.30;;
75851;SDS011;64500;52.632;20.656;2023-04-24T04:56:24;17.00;;;9.90;;
75851;SDS011;64500;52.632;20.656;2023-04-24T04:58:52;18.20;;;10.00;;
75851;SDS011;64500;52.632;20.656;2023-04-24T05:01:19;20.00;;;9.40;;
75851;SDS011;64500;52.632;20.656;2023-04-24T05:03:47;19.00;;;9.40;;
75851;SDS011;64500;52.632;20.656;2023-04-24T05:06:14;14.80;;;9.70;;
75851;SDS011;64500;52.632;20.656;2023-04-24T05:08:42;16.60;;;9.80;;
75851;SDS011;64500;52.632;20.656;2023-04-24T05:11:09;16.60;;;10.20;;
75851;SDS011;64500;52.632;20.656;2023-04-24T05:13:36;20.50;;;10.00;;
75851;SDS011;64500;52.632;20.656;2023-04-24T05:16:03;14.30;;;9.40;;
75851;SDS011;64500;52.632;20.656;2023-04-24T05:18:30;17.00;;;10.40;;
75851;SDS011;64500;52.632;20.656;2023-04-24T05:20:57;28.70;;;10.80;;
75851;SDS011;64500;52.632;20.656;2023-04-24T05:23:24;18.80;;;9.90;;
75851;SDS011;64500;52.632;20.656;2023-04-24T05:25:51;25.10;;;10.50;;
75851;SDS011;64500;52.632;20.656;2023-04-24T05:28:17;23.00;;;10.80;;
75851;SDS011;64500;52.632;20.656;2023-04-24T05:30:44;23.00;;;9.70;;
75851;SDS011;64500;52.632;20.656;2023-04-24T05:33:11;47.20;;;12.00;;
75851;SDS011;64500;52.632;20.656;2023-04-24T05:35:40;25.40;;;10.70;;
75851;SDS011;64500;52.632;20.656;2023-04-24T05:38:12;23.20;;;10.50;;
75851;SDS011;64500;52.632;20.656;2023-04-24T05:40:40;17.20;;;11.20;;
75851;SDS011;64500;52.632;20.656;2023-04-24T05:43:07;25.60;;;10.80;;
75851;SDS011;64500;52.632;20.656;2023-04-24T05:45:34;18.90;;;9.40;;
75851;SDS011;64500;52.632;20.656;2023-04-24T05:48:02;26.10;;;10.70;;
75851;SDS011;64500;52.632;20.656;2023-04-24T05:50:32;19.40;;;9.90;;
75851;SDS011;64500;52.632;20.656;2023-04-24T05:52:59;21.80;;;9.90;;
75851;SDS011;64500;52.632;20.656;2023-04-24T05:55:28;17.20;;;10.00;;
75851;SDS011;64500;52.632;20.656;2023-04-24T05:57:54;19.60;;;10.50;;
75851;SDS011;64500;52.632;20.656;2023-04-24T06:00:21;22.20;;;9.90;;
75851;SDS011;64500;52.632;20.656;2023-04-24T06:02:48;18.40;;;12.70;;
75851;SDS011;64500;52.632;20.656;2023-04-24T06:05:16;17.10;;;9.10;;
75851;SDS011;64500;52.632;20.656;2023-04-24T06:07:44;17.00;;;9.20;;
75851;SDS011;64500;52.632;20.656;2023-04-24T06:10:11;16.30;;;8.70;;
75851;SDS011;64500;52.632;20.656;2023-04-24T06:12:38;14.60;;;9.20;;
75851;SDS011;64500;52.632;20.656;2023-04-24T06:15:05;18.70;;;9.00;;
75851;SDS011;64500;52.632;20.656;2023-04-24T06:17:35;14.90;;;8.30;;
75851;SDS011;64500;52.632;20.656;2023-04-24T06:20:02;15.40;;;9.30;;
75851;SDS011;64500;52.632;20.656;2023-04-24T06:22:32;18.10;;;9.40;;
75851;SDS011;64500;52.632;20.656;2023-04-24T06:25:03;21.30;;;14.40;;
75851;SDS011;64500;52.632;20.656;2023-04-24T06:27:30;15.70;;;9.00;;
75851;SDS011;64500;52.632;20.656;2023-04-24T06:30:00;16.60;;;9.00;;
75851;SDS011;64500;52.632;20.656;2023-04-24T06:32:26;13.80;;;9.00;;
75851;SDS011;64500;52.632;20.656;2023-04-24T06:34:55;15.10;;;9.10;;
75851;SDS011;64500;52.632;20.656;2023-04-24T06:37:22;12.50;;;8.00;;
75851;SDS011;64500;52.632;20.656;2023-04-24T06:39:50;14.80;;;8.60;;
75851;SDS011;64500;52.632;20.656;2023-04-24T06:42:17;13.90;;;8.60;;
75851;SDS011;64500;52.632;20.656;2023-04-24T06:44:44;16.20;;;9.10;;
75851;SDS011;64500;52.632;20.656;2023-04-24T06:47:12;17.80;;;9.40;;
75851;SDS011;64500;52.632;20.656;2023-04-24T06:49:40;15.50;;;8.30;;
75851;SDS011;64500;52.632;20.656;2023-04-24T06:52:08;12.20;;;8.10;;
75851;SDS011;64500;52.632;20.656;2023-04-24T06:54:34;17.00;;;8.80;;
75851;SDS011;64500;52.632;20.656;2023-04-24T06:57:01;18.30;;;9.00;;
75851;SDS011;64500;52.632;20.656;2023-04-24T06:59:29;19.80;;;8.40;;
75851;SDS011;64500;52.632;20.656;2023-04-24T07:01:56;17.90;;;8.70;;
75851;SDS011;64500;52.632;20.656;2023-04-24T07:04:23;14.90;;;8.30;;
75851;SDS011;64500;52.632;20.656;2023-04-24T07:06:51;15.90;;;8.70;;
75851;SDS011;64500;52.632;20.656;2023-04-24T07:09:21;13.40;;;8.00;;
75851;SDS011;64500;52.632;20.656;2023-04-24T07:11:50;15.20;;;8.30;;
75851;SDS011;64500;52.632;20.656;2023-04-24T07:14:17;14.80;;;8.20;;
75851;SDS011;64500;52.632;20.656;2023-04-24T07:16:45;16.10;;;8.00;;
75851;SDS011;64500;52.632;20.656;2023-04-24T07:19:13;16.50;;;8.20;;
75851;SDS011;64500;52.632;20.656;2023-04-24T07:21:40;15.70;;;8.30;;
75851;SDS011;64500;52.632;20.656;2023-04-24T07:24:07;14.30;;;7.50;;
75851;SDS011;64500;52.632;20.656;2023-04-24T07:26:38;20.50;;;8.60;;
75851;SDS011;64500;52.632;20.656;2023-04-24T07:29:06;16.00;;;7.90;;
75851;SDS011;64500;52.632;20.656;2023-04-24T07:31:34;17.10;;;8.00;;
75851;SDS011;64500;52.632;20.656;2023-04-24T07:34:01;14.50;;;7.50;;
75851;SDS011;64500;52.632;20.656;2023-04-24T07:36:28;14.20;;;8.00;;
75851;SDS011;64500;52.632;20.656;2023-04-24T07:38:55;16.60;;;8.10;;
75851;SDS011;64500;52.632;20.656;2023-04-24T07:41:23;14.90;;;7.20;;
75851;SDS011;64500;52.632;20.656;2023-04-24T07:43:51;16.50;;;7.60;;
75851;SDS011;64500;52.632;20.656;2023-04-24T07:46:18;14.60;;;7.80;;
75851;SDS011;64500;52.632;20.656;2023-04-24T07:48:46;13.90;;;7.20;;
75851;SDS011;64500;52.632;20.656;2023-04-24T07:51:14;14.40;;;7.10;;
75851;SDS011;64500;52.632;20.656;2023-04-24T07:53:42;12.70;;;6.60;;
75851;SDS011;64500;52.632;20.656;2023-04-24T07:56:09;12.20;;;6.40;;
75851;SDS011;64500;52.632;20.656;2023-04-24T07:58:36;12.90;;;6.90;;
75851;SDS011;64500;52.632;20.656;2023-04-24T08:01:03;12.60;;;6.80;;
75851;SDS011;64500;52.632;20.656;2023-04-24T08:03:30;11.80;;;6.30;;
75851;SDS011;64500;52.632;20.656;2023-04-24T08:05:57;13.00;;;6.10;;
75851;SDS011;64500;52.632;20.656;2023-04-24T08:08:24;12.80;;;6.10;;
75851;SDS011;64500;52.632;20.656;2023-04-24T08:10:51;28.80;;;6.50;;
75851;SDS011;64500;52.632;20.656;2023-04-24T08:13:18;14.20;;;6.40;;
75851;SDS011;64500;52.632;20.656;2023-04-24T08:15:45;30.90;;;7.20;;
75851;SDS011;64500;52.632;20.656;2023-04-24T08:18:13;14.60;;;6.30;;
75851;SDS011;64500;52.632;20.656;2023-04-24T08:20:42;14.30;;;6.10;;
75851;SDS011;64500;52.632;20.656;2023-04-24T08:23:09;12.00;;;6.00;;
75851;SDS011;64500;52.632;20.656;2023-04-24T08:25:36;15.20;;;5.80;;
75851;SDS011;64500;52.632;20.656;2023-04-24T08:28:06;12.20;;;5.90;;
75851;SDS011;64500;52.632;20.656;2023-04-24T08:30:35;13.50;;;6.20;;
75851;SDS011;64500;52.632;20.656;2023-04-24T08:33:02;11.80;;;5.80;;
75851;SDS011;64500;52.632;20.656;2023-04-24T08:35:29;14.00;;;5.80;;
75851;SDS011;64500;52.632;20.656;2023-04-24T08:37:57;13.60;;;5.40;;
75851;SDS011;64500;52.632;20.656;2023-04-24T08:40:27;11.80;;;5.60;;
75851;SDS011;64500;52.632;20.656;2023-04-24T08:42:57;14.40;;;6.40;;
75851;SDS011;64500;52.632;20.656;2023-04-24T08:45:26;10.50;;;5.40;;
75851;SDS011;64500;52.632;20.656;2023-04-24T08:47:54;11.00;;;5.20;;
75851;SDS011;64500;52.632;20.656;2023-04-24T08:50:21;11.00;;;5.00;;
75851;SDS011;64500;52.632;20.656;2023-04-24T08:52:50;12.00;;;4.90;;
75851;SDS011;64500;52.632;20.656;2023-04-24T08:55:19;13.10;;;5.70;;
75851;SDS011;64500;52.632;20.656;2023-04-24T08:57:51;10.70;;;4.80;;
75851;SDS011;64500;52.632;20.656;2023-04-24T09:00:22;9.60;;;3.80;;
75851;SDS011;64500;52.632;20.656;2023-04-24T09:02:49;25.00;;;5.10;;
75851;SDS011;64500;52.632;20.656;2023-04-24T09:05:17;19.30;;;5.30;;
75851;SDS011;64500;52.632;20.656;2023-04-24T09:07:49;32.30;;;6.10;;
75851;SDS011;64500;52.632;20.656;2023-04-24T09:10:23;22.70;;;5.20;;
75851;SDS011;64500;52.632;20.656;2023-04-24T09:12:52;10.00;;;4.40;;
75851;SDS011;64500;52.632;20.656;2023-04-24T09:15:21;25.70;;;4.20;;
75851;SDS011;64500;52.632;20.656;2023-04-24T09:17:48;8.40;;;4.10;;
75851;SDS011;64500;52.632;20.656;2023-04-24T09:20:16;9.10;;;3.80;;
75851;SDS011;64500;52.632;20.656;2023-04-24T09:22:43;7.30;;;3.70;;
75851;SDS011;64500;52.632;20.656;2023-04-24T09:25:12;11.40;;;4.50;;
75851;SDS011;64500;52.632;20.656;2023-04-24T09:27:42;12.30;;;4.00;;
75851;SDS011;64500;52.632;20.656;2023-04-24T09:30:11;14.70;;;5.60;;
75851;SDS011;64500;52.632;20.656;2023-04-24T09:32:39;12.20;;;4.60;;
75851;SDS011;64500;52.632;20.656;2023-04-24T09:35:13;10.10;;;4.30;;
75851;SDS011;64500;52.632;20.656;2023-04-24T09:37:43;9.20;;;4.30;;
75851;SDS011;64500;52.632;20.656;2023-04-24T09:40:15;11.00;;;3.70;;
75851;SDS011;64500;52.632;20.656;2023-04-24T09:42:51;10.40;;;3.70;;
75851;SDS011;64500;52.632;20.656;2023-04-24T09:45:35;10.60;;;4.10;;
75851;SDS011;64500;52.632;20.656;2023-04-24T09:48:03;10.00;;;4.10;;
75851;SDS011;64500;52.632;20.656;2023-04-24T09:50:32;9.50;;;4.00;;
75851;SDS011;64500;52.632;20.656;2023-04-24T09:53:01;9.60;;;3.60;;
75851;SDS011;64500;52.632;20.656;2023-04-24T09:55:30;8.40;;;3.70;;
75851;SDS011;64500;52.632;20.656;2023-04-24T09:57:58;10.30;;;3.80;;
75851;SDS011;64500;52.632;20.656;2023-04-24T10:00:31;9.70;;;4.10;;
75851;SDS011;64500;52.632;20.656;2023-04-24T10:03:00;12.00;;;4.30;;
75851;SDS011;64500;52.632;20.656;2023-04-24T10:05:30;11.20;;;3.90;;
75851;SDS011;64500;52.632;20.656;2023-04-24T10:10:30;9.00;;;4.00;;
75851;SDS011;64500;52.632;20.656;2023-04-24T10:12:59;8.60;;;4.10;;
75851;SDS011;64500;52.632;20.656;2023-04-24T10:15:27;9.30;;;4.00;;
75851;SDS011;64500;52.632;20.656;2023-04-24T10:17:54;10.90;;;4.10;;
75851;SDS011;64500;52.632;20.656;2023-04-24T10:20:26;11.40;;;4.20;;
75851;SDS011;64500;52.632;20.656;2023-04-24T10:22:55;6.90;;;3.80;;
75851;SDS011;64500;52.632;20.656;2023-04-24T10:25:24;7.70;;;3.90;;
75851;SDS011;64500;52.632;20.656;2023-04-24T10:27:55;8.40;;;3.90;;
75851;SDS011;64500;52.632;20.656;2023-04-24T10:30:26;11.50;;;4.40;;
75851;SDS011;64500;52.632;20.656;2023-04-24T10:32:55;8.10;;;3.80;;
75851;SDS011;64500;52.632;20.656;2023-04-24T10:35:23;10.10;;;4.10;;
75851;SDS011;64500;52.632;20.656;2023-04-24T10:37:57;9.10;;;4.20;;
75851;SDS011;64500;52.632;20.656;2023-04-24T10:40:31;11.00;;;4.80;;
75851;SDS011;64500;52.632;20.656;2023-04-24T10:43:03;8.60;;;4.10;;
75851;SDS011;64500;52.632;20.656;2023-04-24T10:45:34;8.60;;;4.20;;
75851;SDS011;64500;52.632;20.656;2023-04-24T10:48:05;8.40;;;4.30;;
75851;SDS011;64500;52.632;20.656;2023-04-24T10:50:44;7.70;;;4.30;;
75851;SDS011;64500;52.632;20.656;2023-04-24T10:53:17;10.90;;;4.20;;
75851;SDS011;64500;52.632;20.656;2023-04-24T10:55:50;9.80;;;4.40;;
75851;SDS011;64500;52.632;20.656;2023-04-24T11:00:58;8.80;;;4.30;;
75851;SDS011;64500;52.632;20.656;2023-04-24T11:03:27;8.60;;;4.60;;
75851;SDS011;64500;52.632;20.656;2023-04-24T11:06:00;9.80;;;4.40;;
75851;SDS011;64500;52.632;20.656;2023-04-24T11:08:32;9.40;;;4.30;;
75851;SDS011;64500;52.632;20.656;2023-04-24T11:11:15;8.80;;;4.30;;
75851;SDS011;64500;52.632;20.656;2023-04-24T11:16:32;9.50;;;4.70;;
75851;SDS011;64500;52.632;20.656;2023-04-24T11:21:48;7.70;;;4.10;;
75851;SDS011;64500;52.632;20.656;2023-04-24T11:32:29;9.50;;;4.30;;
75851;SDS011;64500;52.632;20.656;2023-04-24T11:35:06;10.80;;;5.00;;
75851;SDS011;64500;52.632;20.656;2023-04-24T11:37:51;9.20;;;4.50;;
75851;SDS011;64500;52.632;20.656;2023-04-24T11:40:20;10.30;;;5.00;;
75851;SDS011;64500;52.632;20.656;2023-04-24T11:42:52;10.90;;;4.60;;
75851;SDS011;64500;52.632;20.656;2023-04-24T11:45:30;9.30;;;4.40;;
75851;SDS011;64500;52.632;20.656;2023-04-24T11:47:57;8.80;;;4.20;;
75851;SDS011;64500;52.632;20.656;2023-04-24T11:50:28;10.00;;;4.60;;
75851;SDS011;64500;52.632;20.656;2023-04-24T11:52:56;10.20;;;4.30;;
75851;SDS011;64500;52.632;20.656;2023-04-24T11:55:24;11.50;;;4.30;;
75851;SDS011;64500;52.632;20.656;2023-04-24T11:57:54;10.30;;;4.50;;
75851;SDS011;64500;52.632;20.656;2023-04-24T12:00:26;11.30;;;4.70;;
75851;SDS011;64500;52.632;20.656;2023-04-24T12:03:04;13.20;;;4.70;;
75851;SDS011;64500;52.632;20.656;2023-04-24T12:07:59;8.50;;;4.30;;
75851;SDS011;64500;52.632;20.656;2023-04-24T12:10:27;9.00;;;4.00;;
75851;SDS011;64500;52.632;20.656;2023-04-24T12:12:57;8.80;;;4.50;;
75851;SDS011;64500;52.632;20.656;2023-04-24T12:15:25;8.30;;;4.50;;
75851;SDS011;64500;52.632;20.656;2023-04-24T12:17:53;8.10;;;4.20;;
75851;SDS011;64500;52.632;20.656;2023-04-24T12:20:28;8.70;;;3.90;;
75851;SDS011;64500;52.632;20.656;2023-04-24T12:22:57;7.90;;;3.80;;
75851;SDS011;64500;52.632;20.656;2023-04-24T12:25:26;10.50;;;4.30;;
75851;SDS011;64500;52.632;20.656;2023-04-24T12:28:16;9.80;;;3.80;;
75851;SDS011;64500;52.632;20.656;2023-04-24T12:30:47;7.40;;;3.60;;
75851;SDS011;64500;52.632;20.656;2023-04-24T12:33:18;8.80;;;3.50;;
75851;SDS011;64500;52.632;20.656;2023-04-24T12:35:47;12.20;;;3.60;;
75851;SDS011;64500;52.632;20.656;2023-04-24T12:38:15;8.70;;;3.70;;
75851;SDS011;64500;52.632;20.656;2023-04-24T12:40:44;10.20;;;3.30;;
75851;SDS011;64500;52.632;20.656;2023-04-24T12:43:17;10.60;;;3.70;;
75851;SDS011;64500;52.632;20.656;2023-04-24T12:45:48;7.40;;;3.10;;
75851;SDS011;64500;52.632;20.656;2023-04-24T12:48:16;8.70;;;3.30;;
75851;SDS011;64500;52.632;20.656;2023-04-24T12:50:45;6.60;;;3.00;;
75851;SDS011;64500;52.632;20.656;2023-04-24T12:53:12;8.00;;;3.60;;
75851;SDS011;64500;52.632;20.656;2023-04-24T12:55:40;9.40;;;3.90;;
75851;SDS011;64500;52.632;20.656;2023-04-24T12:58:07;7.60;;;3.60;;
75851;SDS011;64500;52.632;20.656;2023-04-24T13:00:34;7.90;;;3.70;;
75851;SDS011;64500;52.632;20.656;2023-04-24T13:03:02;7.10;;;3.80;;
75851;SDS011;64500;52.632;20.656;2023-04-24T13:05:30;8.10;;;3.80;;
75851;SDS011;64500;52.632;20.656;2023-04-24T13:07:57;10.30;;;3.70;;
75851;SDS011;64500;52.632;20.656;2023-04-24T13:10:24;10.60;;;3.50;;
75851;SDS011;64500;52.632;20.656;2023-04-24T13:12:51;7.70;;;3.50;;
75851;SDS011;64500;52.632;20.656;2023-04-24T13:15:18;8.30;;;3.40;;
75851;SDS011;64500;52.632;20.656;2023-04-24T13:17:45;7.70;;;3.60;;
75851;SDS011;64500;52.632;20.656;2023-04-24T13:20:12;8.50;;;3.60;;
75851;SDS011;64500;52.632;20.656;2023-04-24T13:22:40;10.10;;;3.70;;
75851;SDS011;64500;52.632;20.656;2023-04-24T13:25:06;11.70;;;3.50;;
75851;SDS011;64500;52.632;20.656;2023-04-24T13:27:34;9.80;;;3.20;;
75851;SDS011;64500;52.632;20.656;2023-04-24T13:30:01;10.00;;;3.70;;
75851;SDS011;64500;52.632;20.656;2023-04-24T13:32:28;9.00;;;3.20;;
75851;SDS011;64500;52.632;20.656;2023-04-24T13:34:56;8.80;;;3.80;;
75851;SDS011;64500;52.632;20.656;2023-04-24T13:37:23;10.00;;;3.70;;
75851;SDS011;64500;52.632;20.656;2023-04-24T13:39:50;11.70;;;3.30;;
75851;SDS011;64500;52.632;20.656;2023-04-24T13:42:17;7.50;;;3.10;;
75851;SDS011;64500;52.632;20.656;2023-04-24T13:44:44;8.20;;;3.10;;
75851;SDS011;64500;52.632;20.656;2023-04-24T13:47:11;7.60;;;2.90;;
75851;SDS011;64500;52.632;20.656;2023-04-24T13:49:38;8.10;;;2.90;;
75851;SDS011;64500;52.632;20.656;2023-04-24T13:52:06;7.70;;;3.10;;
75851;SDS011;64500;52.632;20.656;2023-04-24T13:54:34;9.30;;;3.40;;
75851;SDS011;64500;52.632;20.656;2023-04-24T13:57:01;11.80;;;3.90;;
75851;SDS011;64500;52.632;20.656;2023-04-24T13:59:29;11.30;;;3.80;;
75851;SDS011;64500;52.632;20.656;2023-04-24T14:01:56;10.90;;;3.80;;
75851;SDS011;64500;52.632;20.656;2023-04-24T14:04:23;13.50;;;4.00;;
75851;SDS011;64500;52.632;20.656;2023-04-24T14:06:50;9.50;;;3.60;;
75851;SDS011;64500;52.632;20.656;2023-04-24T14:09:19;11.70;;;3.90;;
75851;SDS011;64500;52.632;20.656;2023-04-24T14:11:46;12.80;;;3.40;;
75851;SDS011;64500;52.632;20.656;2023-04-24T14:14:14;8.30;;;3.20;;
75851;SDS011;64500;52.632;20.656;2023-04-24T14:16:41;12.30;;;3.30;;
75851;SDS011;64500;52.632;20.656;2023-04-24T14:19:08;11.50;;;3.60;;
75851;SDS011;64500;52.632;20.656;2023-04-24T14:21:35;10.50;;;3.30;;
75851;SDS011;64500;52.632;20.656;2023-04-24T14:24:02;9.20;;;3.70;;
75851;SDS011;64500;52.632;20.656;2023-04-24T14:26:30;7.20;;;3.50;;
75851;SDS011;64500;52.632;20.656;2023-04-24T14:28:57;7.40;;;3.60;;
75851;SDS011;64500;52.632;20.656;2023-04-24T14:31:25;9.70;;;3.70;;
75851;SDS011;64500;52.632;20.656;2023-04-24T14:33:52;8.30;;;3.40;;
75851;SDS011;64500;52.632;20.656;2023-04-24T14:36:19;9.30;;;3.50;;
75851;SDS011;64500;52.632;20.656;2023-04-24T14:38:46;8.10;;;3.60;;
75851;SDS011;64500;52.632;20.656;2023-04-24T14:41:14;7.30;;;3.40;;
75851;SDS011;64500;52.632;20.656;2023-04-24T14:43:41;7.20;;;3.40;;
75851;SDS011;64500;52.632;20.656;2023-04-24T14:46:08;8.30;;;3.60;;
75851;SDS011;64500;52.632;20.656;2023-04-24T14:48:35;7.80;;;3.60;;